createdAt,value
2023-04-24T00:01:21.924Z,19.44
2023-04-24T00:03:50.702Z,19.46
2023-04-24T00:06:18.907Z,19.43
2023-04-24T00:08:46.891Z,19.40
2023-04-24T00:11:15.169Z,19.35
2023-04-24T00:13:43.278Z,19.25
2023-04-24T00:16:12.682Z,19.13
2023-04-24T00:18:40.994Z,19.05
2023-04-24T00:21:09.134Z,18.99
2023-04-24T00:23:37.248Z,18.93
2023-04-24T00:26:05.658Z,18.86
2023-04-24T00:28:33.687Z,18.83
2023-04-24T00:31:01.717Z,18.85
2023-04-24T00:33:31.492Z,18.83
2023-04-24T00:35:59.830Z,18.76
2023-04-24T00:38:27.969Z,18.78
2023-04-24T00:40:56.394Z,18.67
2023-04-24T00:43:24.493Z,18.63
2023-04-24T00:45:52.558Z,18.47
2023-04-24T00:48:22.296Z,18.48
2023-04-24T00:50:51.686Z,18.50
2023-04-24T00:53:19.860Z,18.44
2023-04-24T00:55:48.702Z,18.42
2023-04-24T00:58:16.794Z,18.45
2023-04-24T01:00:46.024Z,18.32
2023-04-24T01:03:15.908Z,18.32
2023-04-24T01:05:44.332Z,18.26
2023-04-24T01:08:13.790Z,18.23
2023-04-24T01:10:43.170Z,18.20
2023-04-24T01:13:11.253Z,18.18
2023-04-24T01:15:39.262Z,18.13
2023-04-24T01:18:09.449Z,18.12
2023-04-24T01:20:40.920Z,18.15
2023-04-24T01:23:11.450Z,18.11
2023-04-24T01:25:40.041Z,18.13
2023-04-24T01:28:08.109Z,18.13
2023-04-24T01:30:36.392Z,18.09
2023-04-24T01:33:04.877Z,18.01
2023-04-24T01:35:33.481Z,17.89
2023-04-24T01:38:01.908Z,17.85
2023-04-24T01:40:31.457Z,17.96
2023-04-24T01:43:00.079Z,17.99
2023-04-24T01:45:28.461Z,18.00
2023-04-24T01:47:56.731Z,18.00
2023-04-24T01:50:25.977Z,17.91
2023-04-24T01:52:54.245Z,17.92
2023-04-24T01:55:22.243Z,17.91
2023-04-24T01:57:54.139Z,17.87
2023-04-24T02:00:22.496Z,17.78
2023-04-24T02:02:51.084Z,17.76
2023-04-24T02:05:19.898Z,17.74
2023-04-24T02:07:47.976Z,17.71
2023-04-24T02:10:16.655Z,17.74
2023-04-24T02:12:45.160Z,17.74
2023-04-24T02:15:14.721Z,17.65
2023-04-24T02:17:42.759Z,17.59
2023-04-24T02:20:11.620Z,17.63
2023-04-24T02:22:40.249Z,17.61
2023-04-24T02:25:09.416Z,17.63
2023-04-24T02:27:37.645Z,17.55
2023-04-24T02:30:08.521Z,17.59
2023-04-24T02:32:37.918Z,17.56
2023-04-24T02:35:06.986Z,17.59
2023-04-24T02:37:35.020Z,17.53
2023-04-24T02:40:03.084Z,17.52
2023-04-24T02:42:31.500Z,17.51
2023-04-24T02:44:59.555Z,17.48
2023-04-24T02:47:27.909Z,17.46
2023-04-24T02:49:57.457Z,17.45
2023-04-24T02:52:25.465Z,17.36
2023-04-24T02:54:54.719Z,17.37
2023-04-24T02:57:23.020Z,17.36
2023-04-24T02:59:51.128Z,17.21
2023-04-24T03:02:19.339Z,17.26
2023-04-24T03:04:48.797Z,17.31
2023-04-24T03:07:18.516Z,17.18
2023-04-24T03:09:46.495Z,17.33
2023-04-24T03:12:18.129Z,17.32
2023-04-24T03:14:46.403Z,17.20
2023-04-24T03:17:14.706Z,17.13
2023-04-24T03:19:42.861Z,17.16
2023-04-24T03:22:12.313Z,17.20
2023-04-24T03:24:42.315Z,17.20
2023-04-24T03:27:10.484Z,17.12
2023-04-24T03:29:39.671Z,17.10
2023-04-24T03:32:08.302Z,17.18
2023-04-24T03:34:36.681Z,17.16
2023-04-24T03:37:04.978Z,17.20
2023-04-24T03:39:33.517Z,17.27
2023-04-24T03:42:03.439Z,17.21
2023-04-24T03:44:31.857Z,17.10
2023-04-24T03:47:00.424Z,17.19
2023-04-24T03:49:28.597Z,17.17
2023-04-24T03:51:56.652Z,17.22
2023-04-24T03:54:25.043Z,17.14
2023-04-24T03:56:53.435Z,17.16
2023-04-24T03:59:23.061Z,17.18
2023-04-24T04:01:51.553Z,17.13
2023-04-24T04:04:19.894Z,17.15
2023-04-24T04:06:48.437Z,17.13
2023-04-24T04:09:16.508Z,17.13
2023-04-24T04:11:44.850Z,17.09
2023-04-24T04:14:13.930Z,17.10
2023-04-24T04:16:44.160Z,17.09
2023-04-24T04:19:12.971Z,17.07
2023-04-24T04:21:40.973Z,17.03
2023-04-24T04:24:09.651Z,17.08
2023-04-24T04:26:38.758Z,17.15
2023-04-24T04:29:07.773Z,17.14
2023-04-24T04:31:35.954Z,17.18
2023-04-24T04:34:06.916Z,17.16
2023-04-24T04:36:37.698Z,17.13
2023-04-24T04:39:07.052Z,17.13
2023-04-24T04:41:36.583Z,17.08
2023-04-24T04:44:05.636Z,17.07
2023-04-24T04:46:35.196Z,17.05
2023-04-24T04:49:06.114Z,17.03
2023-04-24T04:51:34.351Z,17.02
2023-04-24T04:54:02.621Z,17.01
2023-04-24T04:56:31.556Z,17.04
2023-04-24T04:59:01.261Z,17.08
2023-04-24T05:01:29.588Z,17.11
2023-04-24T05:03:57.948Z,17.16
2023-04-24T05:06:28.600Z,17.27
2023-04-24T05:08:58.323Z,17.35
2023-04-24T05:11:27.886Z,17.47
2023-04-24T05:13:56.707Z,17.57
2023-04-24T05:16:25.030Z,17.67
2023-04-24T05:18:54.282Z,17.76
2023-04-24T05:21:23.055Z,17.79
2023-04-24T05:23:52.833Z,17.87
2023-04-24T05:26:22.070Z,17.95
2023-04-24T05:28:50.973Z,18.05
2023-04-24T05:31:19.373Z,18.16
2023-04-24T05:33:47.635Z,18.26
2023-04-24T05:36:16.014Z,18.36
2023-04-24T05:38:44.200Z,18.38
2023-04-24T05:41:13.903Z,18.49
2023-04-24T05:43:41.999Z,18.56
2023-04-24T05:46:09.985Z,18.63
2023-04-24T05:48:38.261Z,18.67
2023-04-24T05:51:06.328Z,18.68
2023-04-24T05:53:34.406Z,18.67
2023-04-24T05:56:02.940Z,18.70
2023-04-24T05:58:32.867Z,18.70
2023-04-24T06:01:02.449Z,18.68
2023-04-24T06:03:31.083Z,18.70
2023-04-24T06:05:59.229Z,18.80
2023-04-24T06:08:27.531Z,18.90
2023-04-24T06:10:55.914Z,19.03
2023-04-24T06:13:23.901Z,19.11
2023-04-24T06:15:54.617Z,19.23
2023-04-24T06:18:22.969Z,19.28
2023-04-24T06:20:50.943Z,19.45
2023-04-24T06:23:19.017Z,19.61
2023-04-24T06:25:49.647Z,19.79
2023-04-24T06:28:17.661Z,19.94
2023-04-24T06:30:45.673Z,20.15
2023-04-24T06:33:20.744Z,20.41
2023-04-24T06:35:49.892Z,20.53
2023-04-24T06:38:18.132Z,20.67
2023-04-24T06:40:46.062Z,20.67
2023-04-24T06:43:14.115Z,20.45
2023-04-24T06:45:44.291Z,20.55
2023-04-24T06:48:12.484Z,20.54
2023-04-24T06:50:41.883Z,20.37
2023-04-24T06:53:12.071Z,20.19
2023-04-24T06:55:40.379Z,20.14
2023-04-24T06:58:09.030Z,20.29
2023-04-24T07:00:37.253Z,20.33
2023-04-24T07:03:06.456Z,20.61
2023-04-24T07:05:36.150Z,20.61
2023-04-24T07:08:07.773Z,20.87
2023-04-24T07:10:36.717Z,20.78
2023-04-24T07:13:05.080Z,20.81
2023-04-24T07:15:33.454Z,20.78
2023-04-24T07:18:04.071Z,20.78
2023-04-24T07:20:34.295Z,20.56
2023-04-24T07:23:02.541Z,20.64
2023-04-24T07:25:32.409Z,20.60
2023-04-24T07:28:00.815Z,20.60
2023-04-24T07:30:29.866Z,20.43
2023-04-24T07:32:57.926Z,20.48
2023-04-24T07:35:27.060Z,20.50
2023-04-24T07:37:55.733Z,20.62
2023-04-24T07:40:24.308Z,20.78
2023-04-24T07:42:53.915Z,20.87
2023-04-24T07:45:21.980Z,21.10
2023-04-24T07:47:50.055Z,21.38
2023-04-24T07:50:18.433Z,21.67
2023-04-24T07:52:46.511Z,21.75
2023-04-24T07:55:14.794Z,22.06
2023-04-24T07:57:43.155Z,22.18
2023-04-24T08:00:14.889Z,22.31
2023-04-24T08:02:43.851Z,22.62
2023-04-24T08:05:12.210Z,22.66
2023-04-24T08:07:40.820Z,22.77
2023-04-24T08:10:10.067Z,23.04
2023-04-24T08:12:38.823Z,23.28
2023-04-24T08:15:08.256Z,23.57
2023-04-24T08:17:37.906Z,23.48
2023-04-24T08:20:11.230Z,23.17
2023-04-24T08:22:39.420Z,23.42
2023-04-24T08:25:08.063Z,23.55
2023-04-24T08:27:37.623Z,23.62
2023-04-24T08:30:07.096Z,23.55
2023-04-24T08:32:35.184Z,23.64
2023-04-24T08:35:04.988Z,23.88
2023-04-24T08:37:33.290Z,24.00
2023-04-24T08:40:01.384Z,24.00
2023-04-24T08:42:32.378Z,24.05
2023-04-24T08:45:00.594Z,23.86
2023-04-24T08:47:30.929Z,23.37
2023-04-24T08:50:00.720Z,23.38
2023-04-24T08:52:30.613Z,23.75
2023-04-24T08:54:59.054Z,23.85
2023-04-24T08:57:27.911Z,23.78
2023-04-24T08:59:56.815Z,23.24
2023-04-24T09:02:25.875Z,23.21
2023-04-24T09:04:54.709Z,23.21
2023-04-24T09:07:24.534Z,23.03
2023-04-24T09:09:54.451Z,23.12
2023-04-24T09:12:22.845Z,23.22
2023-04-24T09:14:52.265Z,22.96
2023-04-24T09:17:20.323Z,23.19
2023-04-24T09:19:48.722Z,23.14
2023-04-24T09:22:17.174Z,23.46
2023-04-24T09:24:47.338Z,23.63
2023-04-24T09:27:18.780Z,23.80
2023-04-24T09:29:55.770Z,23.92
2023-04-24T09:32:26.699Z,24.18
2023-04-24T09:35:08.904Z,24.12
2023-04-24T09:37:38.749Z,24.03
2023-04-24T09:40:11.175Z,23.98
2023-04-24T09:42:40.911Z,23.88
2023-04-24T09:45:15.578Z,24.03
2023-04-24T09:47:45.000Z,24.06
2023-04-24T09:50:18.294Z,24.55
2023-04-24T09:52:48.861Z,24.39
2023-04-24T09:55:20.088Z,23.81
2023-04-24T09:57:54.485Z,24.04
2023-04-24T10:00:27.957Z,24.37
2023-04-24T10:02:57.865Z,24.62
2023-04-24T10:05:27.385Z,24.78
2023-04-24T10:07:59.606Z,24.59
2023-04-24T10:10:28.193Z,24.69
2023-04-24T10:12:57.611Z,24.49
2023-04-24T10:15:26.428Z,23.97
2023-04-24T10:17:54.814Z,23.79
2023-04-24T10:20:25.665Z,24.26
2023-04-24T10:22:55.629Z,23.99
2023-04-24T10:25:25.065Z,24.37
2023-04-24T10:27:54.544Z,24.13
2023-04-24T10:30:23.997Z,24.46
2023-04-24T10:32:52.317Z,24.47
2023-04-24T10:35:23.442Z,23.91
2023-04-24T10:37:56.385Z,23.51
2023-04-24T10:40:29.108Z,23.68
2023-04-24T10:42:59.010Z,23.35
2023-04-24T10:45:29.000Z,23.46
2023-04-24T10:48:04.379Z,22.73
2023-04-24T10:50:45.837Z,23.19
2023-04-24T10:53:18.990Z,23.22
2023-04-24T10:55:49.680Z,22.89
2023-04-24T10:58:18.498Z,23.38
2023-04-24T11:00:58.372Z,23.92
2023-04-24T11:03:28.883Z,23.98
2023-04-24T11:06:03.162Z,23.93
2023-04-24T11:08:33.520Z,24.21
2023-04-24T11:11:04.656Z,24.21
2023-04-24T11:14:08.454Z,24.39
2023-04-24T11:16:43.611Z,24.12
2023-04-24T11:19:20.611Z,23.78
2023-04-24T11:21:52.866Z,23.77
2023-04-24T11:24:29.901Z,24.17
2023-04-24T11:26:59.439Z,24.44
2023-04-24T11:29:45.007Z,23.99
2023-04-24T11:32:25.405Z,23.71
2023-04-24T11:34:55.268Z,23.78
2023-04-24T11:37:24.819Z,24.42
2023-04-24T11:39:54.547Z,24.43
2023-04-24T11:42:24.011Z,24.25
2023-04-24T11:44:53.898Z,24.48
2023-04-24T11:47:29.774Z,24.55
2023-04-24T11:49:57.903Z,24.40
2023-04-24T11:52:26.389Z,25.15
2023-04-24T11:54:54.514Z,24.93
2023-04-24T11:57:23.706Z,24.69
2023-04-24T11:59:52.184Z,24.59
2023-04-24T12:02:25.801Z,24.08
2023-04-24T12:04:55.004Z,24.07
2023-04-24T12:07:23.719Z,24.22
2023-04-24T12:09:58.935Z,23.52
2023-04-24T12:12:29.401Z,23.92
2023-04-24T12:14:58.869Z,24.42
2023-04-24T12:17:30.312Z,24.60
2023-04-24T12:20:03.463Z,24.44
2023-04-24T12:22:46.475Z,24.13
2023-04-24T12:25:15.223Z,23.85
2023-04-24T12:27:43.590Z,23.65
2023-04-24T12:30:14.413Z,23.72
2023-04-24T12:32:48.407Z,23.60
2023-04-24T12:35:21.895Z,23.93
2023-04-24T12:37:50.603Z,23.91
2023-04-24T12:40:21.165Z,24.01
2023-04-24T12:42:51.269Z,24.11
2023-04-24T12:45:21.081Z,24.04
2023-04-24T12:47:50.881Z,23.83
2023-04-24T12:50:19.164Z,23.63
2023-04-24T12:52:47.720Z,23.64
2023-04-24T12:55:15.989Z,23.73
2023-04-24T12:57:44.034Z,23.63
2023-04-24T13:00:13.190Z,23.69
2023-04-24T13:02:41.418Z,23.91
2023-04-24T13:05:12.678Z,23.98
2023-04-24T13:07:41.258Z,24.25
2023-04-24T13:10:10.593Z,23.90
2023-04-24T13:12:39.712Z,23.69
2023-04-24T13:15:09.324Z,23.65
2023-04-24T13:17:37.417Z,24.51
2023-04-24T13:20:06.580Z,25.05
2023-04-24T13:22:37.850Z,25.38
2023-04-24T13:25:08.306Z,24.74
2023-04-24T13:27:36.639Z,24.79
2023-04-24T13:30:05.359Z,24.77
2023-04-24T13:32:34.387Z,24.75
2023-04-24T13:35:03.429Z,24.40
2023-04-24T13:37:31.743Z,24.27
2023-04-24T13:40:01.027Z,24.00
2023-04-24T13:42:29.583Z,23.92
2023-04-24T13:44:57.587Z,23.95
2023-04-24T13:47:25.937Z,24.16
2023-04-24T13:49:55.306Z,24.07
2023-04-24T13:52:23.452Z,24.23
2023-04-24T13:54:51.445Z,23.99
2023-04-24T13:57:21.357Z,23.59
2023-04-24T13:59:49.549Z,23.24
2023-04-24T14:02:17.857Z,22.75
2023-04-24T14:04:46.515Z,22.75
2023-04-24T14:07:14.706Z,22.72
2023-04-24T14:09:42.648Z,22.96
2023-04-24T14:12:10.881Z,23.05
2023-04-24T14:14:40.288Z,23.16
2023-04-24T14:17:08.325Z,22.91
2023-04-24T14:19:36.632Z,22.73
2023-04-24T14:22:04.675Z,22.53
2023-04-24T14:24:32.767Z,22.43
2023-04-24T14:27:01.391Z,22.27
2023-04-24T14:29:29.329Z,22.07
2023-04-24T14:31:58.792Z,22.21
2023-04-24T14:34:27.124Z,22.03
2023-04-24T14:36:55.705Z,21.80
2023-04-24T14:39:23.812Z,22.11
2023-04-24T14:41:52.071Z,22.33
2023-04-24T14:44:20.501Z,22.50
2023-04-24T14:46:49.001Z,23.10
2023-04-24T14:49:19.052Z,23.21
2023-04-24T14:51:47.506Z,23.44
2023-04-24T14:54:15.549Z,23.11
2023-04-24T14:56:45.351Z,23.04
2023-04-24T14:59:13.374Z,23.00
2023-04-24T15:01:41.366Z,22.50
2023-04-24T15:04:09.826Z,22.29
2023-04-24T15:06:39.617Z,22.50
2023-04-24T15:09:07.659Z,22.27
2023-04-24T15:11:35.969Z,22.03
2023-04-24T15:14:03.955Z,21.45
2023-04-24T15:16:33.548Z,21.21
2023-04-24T15:19:02.457Z,21.16
2023-04-24T15:21:30.529Z,21.64
2023-04-24T15:23:59.900Z,22.20
2023-04-24T15:26:28.196Z,22.15
2023-04-24T15:28:56.222Z,21.94
2023-04-24T15:31:24.479Z,21.81
2023-04-24T15:33:52.768Z,21.77
2023-04-24T15:36:22.146Z,21.63
2023-04-24T15:38:50.075Z,20.97
2023-04-24T15:41:19.712Z,21.07
2023-04-24T15:43:48.007Z,20.45
2023-04-24T15:46:16.225Z,20.79
2023-04-24T15:48:44.859Z,21.64
2023-04-24T15:51:12.865Z,22.53
2023-04-24T15:53:40.926Z,22.99
2023-04-24T15:56:09.519Z,23.33
2023-04-24T15:58:39.041Z,23.82
2023-04-24T16:01:07.635Z,24.05
2023-04-24T16:03:36.102Z,23.80
2023-04-24T16:06:04.265Z,23.11
2023-04-24T16:08:32.276Z,23.26
2023-04-24T16:11:00.710Z,23.17
2023-04-24T16:13:29.124Z,23.69
2023-04-24T16:15:58.585Z,23.57
2023-04-24T16:18:27.044Z,22.90
2023-04-24T16:20:55.198Z,23.40
2023-04-24T16:23:23.166Z,22.92
2023-04-24T16:25:51.566Z,22.16
2023-04-24T16:28:19.957Z,21.14
2023-04-24T16:30:47.951Z,20.40
2023-04-24T16:33:17.456Z,20.12
2023-04-24T16:35:46.737Z,20.20
2023-04-24T16:38:14.714Z,19.94
2023-04-24T16:40:43.011Z,19.60
2023-04-24T16:43:11.119Z,19.42
2023-04-24T16:45:39.146Z,19.12
2023-04-24T16:48:07.771Z,19.26
2023-04-24T16:50:37.222Z,19.24
2023-04-24T16:53:05.515Z,19.20
2023-04-24T16:55:33.733Z,19.27
2023-04-24T16:58:02.646Z,18.90
2023-04-24T17:00:30.812Z,18.21
2023-04-24T17:02:59.274Z,18.69
2023-04-24T17:05:27.474Z,18.13
2023-04-24T17:07:57.277Z,18.48
2023-04-24T17:10:25.663Z,18.28
2023-04-24T17:12:53.675Z,18.23
2023-04-24T17:15:21.798Z,18.65
2023-04-24T17:17:50.390Z,18.58
2023-04-24T17:20:22.779Z,18.69
2023-04-24T17:22:52.379Z,18.76
2023-04-24T17:25:21.883Z,18.89
2023-04-24T17:27:50.044Z,19.03
2023-04-24T17:30:18.696Z,18.77
2023-04-24T17:32:46.908Z,18.78
2023-04-24T17:35:15.306Z,18.49
2023-04-24T17:37:43.732Z,18.56
2023-04-24T17:40:13.333Z,18.53
2023-04-24T17:42:42.762Z,18.34
2023-04-24T17:45:12.084Z,18.02
2023-04-24T17:47:40.409Z,18.03
2023-04-24T17:50:08.980Z,18.04
2023-04-24T17:52:37.337Z,18.04
2023-04-24T17:55:06.155Z,17.86
2023-04-24T17:57:34.328Z,17.58
2023-04-24T18:00:04.843Z,17.41
2023-04-24T18:02:34.243Z,17.41
2023-04-24T18:05:02.728Z,17.36
2023-04-24T18:07:30.910Z,17.38
2023-04-24T18:09:58.915Z,17.36
2023-04-24T18:12:27.421Z,16.81
2023-04-24T18:15:12.467Z,17.04
2023-04-24T18:17:44.073Z,16.97
2023-04-24T18:20:12.995Z,17.00
2023-04-24T18:22:41.665Z,16.86
2023-04-24T18:25:11.160Z,16.75
2023-04-24T18:27:40.360Z,16.75
2023-04-24T18:30:12.606Z,16.49
2023-04-24T18:32:44.279Z,16.21
2023-04-24T18:35:12.578Z,16.51
2023-04-24T18:37:41.036Z,16.40
2023-04-24T18:40:10.348Z,16.42
2023-04-24T18:42:38.411Z,16.38
2023-04-24T18:45:07.535Z,16.37
2023-04-24T18:47:35.915Z,16.31
2023-04-24T18:50:05.520Z,16.37
2023-04-24T18:52:33.606Z,16.17
2023-04-24T18:55:03.527Z,16.29
2023-04-24T18:57:31.606Z,16.06
2023-04-24T18:59:59.954Z,16.15
2023-04-24T19:02:28.464Z,16.08
2023-04-24T19:04:56.636Z,16.26
2023-04-24T19:07:26.178Z,16.17
2023-04-24T19:09:54.466Z,16.06
2023-04-24T19:12:23.137Z,16.21
2023-04-24T19:14:51.713Z,16.26
2023-04-24T19:17:23.598Z,16.20
2023-04-24T19:19:52.306Z,16.25
2023-04-24T19:22:21.262Z,16.09
2023-04-24T19:24:50.663Z,16.13
2023-04-24T19:27:18.733Z,15.87
2023-04-24T19:29:47.262Z,16.01
2023-04-24T19:32:15.594Z,16.01
2023-04-24T19:34:44.002Z,15.95
2023-04-24T19:37:12.521Z,15.83
2023-04-24T19:39:40.555Z,15.85
2023-04-24T19:42:09.954Z,15.81
2023-04-24T19:44:38.435Z,15.74
2023-04-24T19:47:06.620Z,15.66
2023-04-24T19:49:34.683Z,15.59
2023-04-24T19:52:02.995Z,15.52
2023-04-24T19:54:31.127Z,15.45
2023-04-24T19:56:59.263Z,15.40
2023-04-24T19:59:28.962Z,15.41
2023-04-24T20:01:57.275Z,15.39
2023-04-24T20:04:26.062Z,15.38
2023-04-24T20:06:54.230Z,15.30
2023-04-24T20:09:23.249Z,15.24
2023-04-24T20:11:53.578Z,15.19
2023-04-24T20:14:21.996Z,15.14
2023-04-24T20:16:51.485Z,15.08
2023-04-24T20:19:20.885Z,15.02
2023-04-24T20:21:49.171Z,14.81
2023-04-24T20:24:17.198Z,14.78
2023-04-24T20:26:45.633Z,14.73
2023-04-24T20:29:13.925Z,14.66
2023-04-24T20:31:42.351Z,14.64
2023-04-24T20:34:12.167Z,14.62
2023-04-24T20:36:41.827Z,14.63
2023-04-24T20:39:11.837Z,14.65
2023-04-24T20:41:40.704Z,14.69
2023-04-24T20:44:08.769Z,14.71
2023-04-24T20:46:37.118Z,14.64
2023-04-24T20:49:05.371Z,14.66
2023-04-24T20:51:34.733Z,14.67
2023-04-24T20:54:03.896Z,14.60
2023-04-24T20:56:32.448Z,14.54
2023-04-24T20:59:01.646Z,14.53
2023-04-24T21:01:30.386Z,14.44
2023-04-24T21:03:58.649Z,14.40
2023-04-24T21:06:27.296Z,14.34
2023-04-24T21:08:56.909Z,14.29
2023-04-24T21:11:24.993Z,14.18
2023-04-24T21:13:53.105Z,14.18
2023-04-24T21:16:21.547Z,14.16
2023-04-24T21:18:49.800Z,14.10
2023-04-24T21:21:17.785Z,14.10
2023-04-24T21:23:46.100Z,14.07
2023-04-24T21:26:15.519Z,13.98
2023-04-24T21:28:43.843Z,13.92
2023-04-24T21:31:12.504Z,13.87
2023-04-24T21:33:40.532Z,13.82
2023-04-24T21:36:09.018Z,13.73
2023-04-24T21:38:37.404Z,13.69
2023-04-24T21:41:05.409Z,13.67
2023-04-24T21:43:43.951Z,13.61
2023-04-24T21:46:13.388Z,13.62
2023-04-24T21:48:41.396Z,13.56
2023-04-24T21:51:09.606Z,13.56
2023-04-24T21:53:37.902Z,13.55
2023-04-24T21:56:06.583Z,13.53
2023-04-24T21:58:36.193Z,13.49
2023-04-24T22:01:04.612Z,13.40
2023-04-24T22:03:33.665Z,13.35
2023-04-24T22:06:02.060Z,13.29
2023-04-24T22:08:30.088Z,13.29
2023-04-24T22:10:58.611Z,13.27
2023-04-24T22:13:27.172Z,13.24
2023-04-24T22:15:56.863Z,13.26
2023-04-24T22:18:33.421Z,13.26
2023-04-24T22:21:05.397Z,13.24
2023-04-24T22:23:33.711Z,13.26
2023-04-24T22:26:01.807Z,13.23
2023-04-24T22:28:29.781Z,13.20
2023-04-24T22:30:59.522Z,13.16
2023-04-24T22:33:27.536Z,13.14
2023-04-24T22:35:55.530Z,13.12
2023-04-24T22:38:23.871Z,13.13
2023-04-24T22:40:51.939Z,13.09
2023-04-24T22:43:20.144Z,13.05
2023-04-24T22:45:48.388Z,13.04
2023-04-24T22:48:18.357Z,13.07
2023-04-24T22:50:46.741Z,13.09
2023-04-24T22:53:14.945Z,13.14
2023-04-24T22:55:43.017Z,13.14
2023-04-24T22:58:11.272Z,13.11
2023-04-24T23:00:39.630Z,13.09
2023-04-24T23:03:07.856Z,13.06
2023-04-24T23:05:37.326Z,13.06
2023-04-24T23:08:06.136Z,13.04
2023-04-24T23:10:34.231Z,13.03
2023-04-24T23:13:02.264Z,13.05
2023-04-24T23:15:30.567Z,13.02
2023-04-24T23:17:58.739Z,12.98
2023-04-24T23:20:27.465Z,12.94
2023-04-24T23:22:57.232Z,12.93
2023-04-24T23:25:25.295Z,12.90
2023-04-24T23:27:53.337Z,12.86
2023-04-24T23:30:21.739Z,12.78
2023-04-24T23:32:49.947Z,12.77
2023-04-24T23:35:18.280Z,12.74
2023-04-24T23:37:46.760Z,12.72
2023-04-24T23:40:16.238Z,12.71
2023-04-24T23:42:44.663Z,12.69
2023-04-24T23:45:13.846Z,12.69
2023-04-24T23:47:42.018Z,12.71
2023-04-24T23:50:11.045Z,12.70
2023-04-24T23:52:39.250Z,12.70
2023-04-24T23:55:09.356Z,12.65
2023-04-24T23:57:38.836Z,12.65
